Terminal Aerodrome Forecast
Issued by NWS

Home | Current Version | Previous Version | Text Only | Print | Product List | Glossary On
Versions: 1 2 3 4 5 6 7 8 9 10 11 12 13 14 15 16 17 18 19 20 21 22 23 24 25 26 27 28
000
FTUS43 KLOT 311120
TAFMDW
TAF
KMDW 311120Z 3112/0112 10005KT P6SM SCT060 BKN250
     FM311500 11008KT P6SM SCT050 SCT250
     FM311900 10009KT P6SM SCT050 BKN100 PROB30 3121/0102 4SM TSRA
      OVC060CB
     FM010300 14007KT P6SM SCT050 BKN080=

USA.gov is the U.S. government's official web portal to all federal, state and local government web resources and services.